TOM1FK LEIB-EGGD
Flight info
| Callsign | TOM1FK |
|---|---|
| Flight time | N/A |
| Altitude | 34000 |
| Route | EPAMA DCT MARTA DCT EBROX DCT UMURE N863 GIROM DCT AGN DCT SECHE DCT UVELI DCT CNA DCT MANAK DCT MUREL/N0423F300 DCT NOZHU/N0418F290 DCT SHIRI DCT TOJAQ |
| Aircraft | B38M/M-SDE1FGHILORVWXY/HB1 |
Departure
| Time | 2026-05-04 19:12 |
|---|---|
| Airport | Ibiza Airport (LEIB) |
Arrival
| Time | N/A |
|---|---|
| Airport | Bristol Airport (EGGD) |
| Time | Latitude | Longitude | Altitude | Speed | Heading |
|---|---|---|---|---|---|
| 2026-05-04 18:40 | 38.87494 | 1.37093 | 11 ft | 0 kts | 332° |
| 2026-05-04 19:06 | 38.87503 | 1.37084 | 12 ft | 4 kts | 319° |
| 2026-05-04 19:06 | 38.87524 | 1.37032 | 11 ft | 9 kts | 280° |
| 2026-05-04 19:07 | 38.87501 | 1.36952 | 11 ft | 9 kts | 239° |
| 2026-05-04 19:07 | 38.87444 | 1.36954 | 11 ft | 10 kts | 153° |
| 2026-05-04 19:07 | 38.87373 | 1.37000 | 11 ft | 8 kts | 153° |
| 2026-05-04 19:07 | 38.87365 | 1.37058 | 11 ft | 9 kts | 66° |
| 2026-05-04 19:08 | 38.87404 | 1.37154 | 11 ft | 17 kts | 62° |
| 2026-05-04 19:08 | 38.87474 | 1.37323 | 11 ft | 26 kts | 62° |
| 2026-05-04 19:08 | 38.87553 | 1.37515 | 12 ft | 20 kts | 62° |
| 2026-05-04 19:08 | 38.87622 | 1.37679 | 11 ft | 22 kts | 60° |
| 2026-05-04 19:09 | 38.87696 | 1.37855 | 13 ft | 24 kts | 61° |
| 2026-05-04 19:09 | 38.87765 | 1.38021 | 13 ft | 15 kts | 62° |
| 2026-05-04 19:09 | 38.87817 | 1.38146 | 11 ft | 17 kts | 62° |
| 2026-05-04 19:09 | 38.87876 | 1.38290 | 11 ft | 19 kts | 61° |
| 2026-05-04 19:10 | 38.87942 | 1.38448 | 11 ft | 19 kts | 62° |
| 2026-05-04 19:10 | 38.87992 | 1.38569 | 11 ft | 12 kts | 60° |
| 2026-05-04 19:10 | 38.87989 | 1.38642 | 12 ft | 8 kts | 152° |
| 2026-05-04 19:10 | 38.87934 | 1.38677 | 14 ft | 10 kts | 153° |
| 2026-05-04 19:11 | 38.87876 | 1.38716 | 14 ft | 6 kts | 155° |
| 2026-05-04 19:11 | 38.87863 | 1.38709 | 14 ft | 2 kts | 240° |
| 2026-05-04 19:11 | 38.87827 | 1.38620 | 14 ft | 38 kts | 242° |
| 2026-05-04 19:11 | 38.87578 | 1.38018 | 15 ft | 112 kts | 241° |
| 2026-05-04 19:12 | 38.87119 | 1.36914 | 137 ft | 156 kts | 240° |
| 2026-05-04 19:12 | 38.86132 | 1.34385 | 1803 ft | 157 kts | 241° |
| 2026-05-04 19:12 | 38.85608 | 1.33037 | 2250 ft | 181 kts | 242° |
| 2026-05-04 19:13 | 38.85030 | 1.31555 | 2864 ft | 193 kts | 243° |
| 2026-05-04 19:13 | 38.84415 | 1.29984 | 3607 ft | 199 kts | 243° |
| 2026-05-04 19:13 | 38.83782 | 1.28372 | 4375 ft | 206 kts | 244° |
| 2026-05-04 19:13 | 38.83321 | 1.26596 | 5007 ft | 219 kts | 266° |
| 2026-05-04 19:14 | 38.83663 | 1.24624 | 5541 ft | 238 kts | 298° |
| 2026-05-04 19:14 | 38.84825 | 1.23114 | 6470 ft | 241 kts | 321° |
| 2026-05-04 19:14 | 38.86205 | 1.21860 | 7254 ft | 245 kts | 319° |
| 2026-05-04 19:14 | 38.87603 | 1.20553 | 8035 ft | 249 kts | 319° |
| 2026-05-04 19:15 | 38.88996 | 1.19255 | 8844 ft | 253 kts | 319° |
| 2026-05-04 19:15 | 38.90437 | 1.17914 | 9618 ft | 257 kts | 319° |
| 2026-05-04 19:15 | 38.91939 | 1.16607 | 10261 ft | 271 kts | 329° |
| 2026-05-04 19:15 | 38.93868 | 1.16019 | 10623 ft | 302 kts | 356° |
| 2026-05-04 19:16 | 38.96018 | 1.16547 | 10991 ft | 328 kts | 13° |
| 2026-05-04 19:16 | 38.98274 | 1.17347 | 11424 ft | 343 kts | 11° |
| 2026-05-04 19:16 | 39.00617 | 1.18138 | 12059 ft | 351 kts | 10° |
| 2026-05-04 19:16 | 39.02969 | 1.18923 | 12849 ft | 355 kts | 10° |
| 2026-05-04 19:17 | 39.05412 | 1.19734 | 13624 ft | 361 kts | 9° |
| 2026-05-04 19:17 | 39.07828 | 1.20534 | 14338 ft | 366 kts | 9° |
| 2026-05-04 19:17 | 39.10299 | 1.21352 | 15075 ft | 370 kts | 9° |
| 2026-05-04 19:17 | 39.12805 | 1.22183 | 15821 ft | 375 kts | 9° |
| 2026-05-04 19:18 | 39.15349 | 1.23026 | 16540 ft | 380 kts | 9° |
| 2026-05-04 19:18 | 39.17932 | 1.23882 | 17250 ft | 384 kts | 9° |
| 2026-05-04 19:18 | 39.20538 | 1.24748 | 17946 ft | 389 kts | 9° |
| 2026-05-04 19:18 | 39.23176 | 1.25625 | 18577 ft | 393 kts | 8° |
| 2026-05-04 19:19 | 39.25839 | 1.26511 | 19160 ft | 398 kts | 8° |
| 2026-05-04 19:19 | 39.28544 | 1.27411 | 19742 ft | 402 kts | 8° |
| 2026-05-04 19:19 | 39.31247 | 1.28311 | 20305 ft | 406 kts | 8° |
| 2026-05-04 19:19 | 39.33987 | 1.29224 | 20862 ft | 411 kts | 8° |
| 2026-05-04 19:20 | 39.36770 | 1.30153 | 21428 ft | 415 kts | 8° |
| 2026-05-04 19:20 | 39.39581 | 1.31091 | 21969 ft | 420 kts | 8° |
| 2026-05-04 19:20 | 39.42428 | 1.32043 | 22527 ft | 424 kts | 8° |
| 2026-05-04 19:20 | 39.45307 | 1.33006 | 23064 ft | 428 kts | 8° |
| 2026-05-04 19:21 | 39.48211 | 1.33977 | 23570 ft | 432 kts | 8° |
| 2026-05-04 19:21 | 39.51103 | 1.34947 | 24018 ft | 435 kts | 8° |
| 2026-05-04 19:21 | 39.54046 | 1.35933 | 24476 ft | 438 kts | 8° |
| 2026-05-04 19:21 | 39.57012 | 1.36929 | 24922 ft | 441 kts | 8° |
| 2026-05-04 19:22 | 39.59999 | 1.37727 | 25370 ft | 436 kts | 357° |
| 2026-05-04 19:22 | 39.62996 | 1.37581 | 25787 ft | 429 kts | 347° |
| 2026-05-04 19:22 | 39.65989 | 1.37237 | 26149 ft | 434 kts | 347° |
| 2026-05-04 19:22 | 39.68999 | 1.36871 | 26597 ft | 436 kts | 347° |
| 2026-05-04 19:23 | 39.71995 | 1.36486 | 27008 ft | 438 kts | 347° |
| 2026-05-04 19:23 | 39.75054 | 1.36084 | 27424 ft | 441 kts | 347° |
| 2026-05-04 19:23 | 39.78120 | 1.35677 | 27850 ft | 443 kts | 347° |
| 2026-05-04 19:23 | 39.81199 | 1.35269 | 28278 ft | 446 kts | 347° |
| 2026-05-04 19:24 | 39.84281 | 1.34858 | 28673 ft | 449 kts | 347° |
| 2026-05-04 19:24 | 39.87363 | 1.34448 | 29064 ft | 451 kts | 347° |
| 2026-05-04 19:24 | 39.90537 | 1.34025 | 29454 ft | 454 kts | 347° |
| 2026-05-04 19:24 | 39.93640 | 1.33611 | 29822 ft | 456 kts | 347° |
| 2026-05-04 19:25 | 39.96816 | 1.33186 | 30163 ft | 459 kts | 347° |
| 2026-05-04 19:25 | 39.99997 | 1.32761 | 30480 ft | 461 kts | 347° |
| 2026-05-04 19:25 | 40.03208 | 1.32331 | 30811 ft | 463 kts | 347° |
| 2026-05-04 19:25 | 40.06428 | 1.31900 | 31120 ft | 465 kts | 347° |
| 2026-05-04 19:26 | 40.09648 | 1.31468 | 31428 ft | 467 kts | 347° |
| 2026-05-04 19:26 | 40.12849 | 1.31039 | 31723 ft | 469 kts | 347° |
| 2026-05-04 19:26 | 40.16105 | 1.30601 | 32022 ft | 472 kts | 347° |
| 2026-05-04 19:26 | 40.19387 | 1.30160 | 32327 ft | 474 kts | 347° |
| 2026-05-04 19:27 | 40.22669 | 1.29718 | 32677 ft | 474 kts | 347° |
| 2026-05-04 19:27 | 40.25950 | 1.29277 | 33129 ft | 473 kts | 347° |
| 2026-05-04 19:27 | 40.29216 | 1.28836 | 33535 ft | 472 kts | 347° |
| 2026-05-04 19:27 | 40.32475 | 1.28396 | 33891 ft | 472 kts | 347° |
| 2026-05-04 19:28 | 40.35752 | 1.27954 | 33956 ft | 472 kts | 347° |
| 2026-05-04 19:28 | 40.42227 | 1.27077 | 33934 ft | 469 kts | 347° |
| 2026-05-04 19:29 | 40.48733 | 1.26195 | 33945 ft | 470 kts | 348° |
| 2026-05-04 19:29 | 40.55242 | 1.25310 | 33930 ft | 469 kts | 348° |
| 2026-05-04 19:30 | 40.61688 | 1.24432 | 33930 ft | 469 kts | 348° |
| 2026-05-04 19:30 | 40.68189 | 1.23545 | 33931 ft | 469 kts | 347° |
| 2026-05-04 19:31 | 40.74702 | 1.22655 | 33930 ft | 469 kts | 348° |
| 2026-05-04 19:31 | 40.81167 | 1.21769 | 33936 ft | 469 kts | 347° |
| 2026-05-04 19:32 | 40.87670 | 1.20877 | 33942 ft | 469 kts | 347° |
| 2026-05-04 19:32 | 40.94138 | 1.19988 | 33959 ft | 470 kts | 348° |
| 2026-05-04 19:33 | 41.00656 | 1.19089 | 33963 ft | 470 kts | 348° |
| 2026-05-04 19:33 | 41.07144 | 1.18194 | 33967 ft | 470 kts | 348° |
| 2026-05-04 19:34 | 41.13653 | 1.17295 | 33982 ft | 470 kts | 348° |
| 2026-05-04 19:34 | 41.20214 | 1.16562 | 33965 ft | 472 kts | 349° |
| 2026-05-04 19:35 | 41.26733 | 1.15887 | 33956 ft | 472 kts | 349° |
| 2026-05-04 19:35 | 41.33276 | 1.15200 | 33957 ft | 472 kts | 349° |
| 2026-05-04 19:36 | 41.39845 | 1.14510 | 33996 ft | 473 kts | 349° |
| 2026-05-04 19:36 | 41.46447 | 1.13815 | 33932 ft | 482 kts | 350° |
| 2026-05-04 19:37 | 41.53152 | 1.13108 | 33936 ft | 483 kts | 350° |
| 2026-05-04 19:37 | 41.59815 | 1.12404 | 33940 ft | 482 kts | 350° |
| 2026-05-04 19:38 | 41.66526 | 1.11694 | 33947 ft | 482 kts | 350° |
| 2026-05-04 19:38 | 41.73233 | 1.10982 | 33953 ft | 482 kts | 350° |
| 2026-05-04 19:39 | 41.79889 | 1.10274 | 33977 ft | 482 kts | 350° |
| 2026-05-04 19:39 | 41.86581 | 1.09561 | 33979 ft | 483 kts | 350° |
| 2026-05-04 19:40 | 41.93289 | 1.08844 | 33986 ft | 483 kts | 350° |
| 2026-05-04 19:40 | 41.99942 | 1.08132 | 33996 ft | 483 kts | 351° |
| 2026-05-04 19:41 | 42.06643 | 1.07413 | 33977 ft | 483 kts | 351° |
| 2026-05-04 19:41 | 42.13348 | 1.06693 | 33966 ft | 483 kts | 351° |
| 2026-05-04 19:42 | 42.20022 | 1.05975 | 33952 ft | 483 kts | 351° |
| 2026-05-04 19:42 | 42.26738 | 1.05252 | 33944 ft | 484 kts | 351° |
| 2026-05-04 19:43 | 42.33458 | 1.04527 | 33942 ft | 484 kts | 351° |
| 2026-05-04 19:43 | 42.40134 | 1.03805 | 33936 ft | 484 kts | 351° |
| 2026-05-04 19:44 | 42.46878 | 1.03071 | 33938 ft | 484 kts | 351° |
| 2026-05-04 19:44 | 42.53563 | 1.02344 | 33965 ft | 485 kts | 351° |
| 2026-05-04 19:45 | 42.60308 | 1.01607 | 33973 ft | 484 kts | 351° |
| 2026-05-04 19:45 | 42.66999 | 1.00875 | 33977 ft | 486 kts | 351° |
| 2026-05-04 19:46 | 42.73756 | 1.00134 | 33987 ft | 486 kts | 351° |
| 2026-05-04 19:46 | 42.80492 | 0.99393 | 33983 ft | 486 kts | 351° |
| 2026-05-04 19:47 | 42.87239 | 0.98652 | 33960 ft | 486 kts | 351° |
| 2026-05-04 19:47 | 42.93973 | 0.97911 | 34003 ft | 486 kts | 351° |
| 2026-05-04 19:48 | 43.00695 | 0.97168 | 33989 ft | 486 kts | 351° |
| 2026-05-04 19:48 | 43.07443 | 0.96422 | 33998 ft | 487 kts | 352° |
| 2026-05-04 19:49 | 43.14180 | 0.95674 | 33999 ft | 487 kts | 352° |
| 2026-05-04 19:49 | 43.20947 | 0.94922 | 33997 ft | 487 kts | 352° |
| 2026-05-04 19:50 | 43.26579 | 0.94295 | 34001 ft | 488 kts | 352° |
| 2026-05-04 19:50 | 43.33321 | 0.93542 | 33995 ft | 489 kts | 352° |
| 2026-05-04 19:51 | 43.40110 | 0.92783 | 33991 ft | 489 kts | 352° |
| 2026-05-04 19:51 | 43.46909 | 0.92021 | 33993 ft | 490 kts | 352° |
| 2026-05-04 19:52 | 43.53715 | 0.91256 | 33988 ft | 490 kts | 352° |
| 2026-05-04 19:52 | 43.60462 | 0.90497 | 33984 ft | 490 kts | 352° |
| 2026-05-04 19:53 | 43.67271 | 0.89728 | 33989 ft | 490 kts | 352° |
| 2026-05-04 19:53 | 43.74078 | 0.88958 | 33986 ft | 490 kts | 352° |
| 2026-05-04 19:54 | 43.80854 | 0.88190 | 33982 ft | 490 kts | 352° |
| 2026-05-04 19:54 | 43.87649 | 0.87304 | 33968 ft | 487 kts | 345° |
| 2026-05-04 19:54 | 43.90826 | 0.85841 | 33976 ft | 478 kts | 331° |
| 2026-05-04 19:55 | 43.93836 | 0.83955 | 33959 ft | 481 kts | 332° |
| 2026-05-04 19:55 | 43.99920 | 0.80116 | 33971 ft | 480 kts | 331° |
| 2026-05-04 19:56 | 44.05979 | 0.76210 | 34005 ft | 482 kts | 331° |
| 2026-05-04 19:56 | 44.12082 | 0.72257 | 33974 ft | 484 kts | 331° |
| 2026-05-04 19:57 | 44.18191 | 0.68292 | 33970 ft | 484 kts | 331° |
| 2026-05-04 19:57 | 44.24264 | 0.64340 | 33968 ft | 484 kts | 331° |
| 2026-05-04 19:58 | 44.30371 | 0.60358 | 33973 ft | 485 kts | 331° |
| 2026-05-04 19:58 | 44.36494 | 0.56356 | 33959 ft | 485 kts | 331° |
| 2026-05-04 19:59 | 44.42620 | 0.52343 | 33981 ft | 485 kts | 331° |
| 2026-05-04 19:59 | 44.48704 | 0.48315 | 33965 ft | 487 kts | 331° |
| 2026-05-04 20:00 | 44.54837 | 0.44246 | 33986 ft | 487 kts | 331° |
| 2026-05-04 20:00 | 44.60932 | 0.40195 | 33976 ft | 487 kts | 331° |
| 2026-05-04 20:01 | 44.67081 | 0.36097 | 33980 ft | 487 kts | 331° |
| 2026-05-04 20:01 | 44.73149 | 0.32045 | 33965 ft | 486 kts | 331° |
| 2026-05-04 20:02 | 44.79273 | 0.27944 | 33966 ft | 486 kts | 331° |
| 2026-05-04 20:02 | 44.85358 | 0.23861 | 33961 ft | 486 kts | 331° |
| 2026-05-04 20:03 | 44.91474 | 0.19747 | 33963 ft | 486 kts | 331° |
| 2026-05-04 20:03 | 44.97575 | 0.15633 | 33964 ft | 486 kts | 331° |
| 2026-05-04 20:04 | 45.03684 | 0.11505 | 33962 ft | 488 kts | 331° |
| 2026-05-04 20:04 | 45.09792 | 0.07365 | 33957 ft | 488 kts | 331° |